»·PEaware :: N313N KSMO-KSFO

N313N :: KSMO-KSFO

FLIGHT INFORMATION

Flight Status: Arrived
Operator: Privately registered:
United States
More flights under this callsign
Pilot: Damien O. (2415)
Aircraft: GULFSTREAM G-1159C GULFSTREAM 4
(GLF4)
More flights by this aircraft type
Origin: KSMO Santa Monica Mun
United States
Destination: KSFO San Francisco Intl
United States
More flights between these airports :: More routes between these airports
Route: CTRUS3 STOKD SERFR SERFR3
File this flight plan on PilotEdge
Remarks:
Altitude:
(Current/Filed)
280ft
Speed:
(Current/Filed)
330kts
Departed: 11-Feb-19 11:17 AM
Arrived: 11-Feb-19 12:21 PM
Distance/Time
Traveled:
289nm/1:03
Distance/Time
To Go:
Arrived

Flight Plot

Page will automatically refresh every two minutes.

Flight plan parsing failed; only flown route is shown


Map Options




Map Legend


Flown Route
Filed Route
Departure Airport
Arrival Airport
Navaid (VOR, NDB)
Fix

Horizontal Profiles

Position Reports

Time Latitude Longitude Heading Altitude Ground
Speed
11-Feb-19 11:11 34.013528 -118.453178 40 142ft 0kts
11-Feb-19 11:12 34.013528 -118.453178 40 142ft 0kts
11-Feb-19 11:13 34.013528 -118.453178 40 142ft 0kts
11-Feb-19 11:13 34.013982 -118.452437 51 142ft 21kts
11-Feb-19 11:15 34.017721 -118.447949 44 142ft 14kts
11-Feb-19 11:16 34.019088 -118.447069 324 142ft 12kts
11-Feb-19 11:16 34.007565 -118.460859 223 1031ft 190kts
11-Feb-19 11:17 33.989001 -118.522659 272 3291ft 222kts
11-Feb-19 11:18 33.993539 -118.627708 281 4710ft 248kts
11-Feb-19 11:20 33.989496 -118.712184 238 5569ft 246kts
11-Feb-19 11:20 33.955335 -118.772048 237 7327ft 248kts
11-Feb-19 11:21 33.922979 -118.828061 239 8980ft 247kts
11-Feb-19 11:22 33.933379 -118.895778 289 10814ft 250kts
11-Feb-19 11:23 33.967179 -118.968384 299 13128ft 381kts
11-Feb-19 11:24 34.052248 -118.995820 3 15645ft 429kts
11-Feb-19 11:25 34.160297 -119.004671 310 18731ft 407kts
11-Feb-19 11:26 34.223658 -119.112408 296 21699ft 410kts
11-Feb-19 11:27 34.288029 -119.229782 297 24710ft 423kts
11-Feb-19 11:28 34.359485 -119.356274 297 27600ft 440kts
11-Feb-19 11:29 34.435494 -119.488951 297 27673ft 439kts
11-Feb-19 11:30 34.523553 -119.607059 312 27918ft 460kts
11-Feb-19 11:31 34.624463 -119.705607 312 27933ft 458kts
11-Feb-19 11:32 34.726811 -119.805617 312 27931ft 457kts
11-Feb-19 11:33 34.825369 -119.901823 312 27930ft 458kts
11-Feb-19 11:34 34.921999 -119.995949 312 27930ft 458kts
11-Feb-19 11:35 34.998918 -120.107687 292 27920ft 432kts
11-Feb-19 11:36 35.056833 -120.227915 292 27903ft 432kts
11-Feb-19 11:37 35.104751 -120.353135 272 27905ft 413kts
11-Feb-19 11:38 35.169334 -120.460603 312 27885ft 459kts
11-Feb-19 11:39 35.262396 -120.551799 311 27878ft 458kts
11-Feb-19 11:40 35.357554 -120.647505 310 27877ft 457kts
11-Feb-19 11:41 35.441325 -120.732048 310 27886ft 456kts
11-Feb-19 11:42 35.529903 -120.822010 310 27875ft 456kts
11-Feb-19 11:43 35.619295 -120.912767 310 27874ft 455kts
11-Feb-19 11:44 35.707806 -121.002560 310 27873ft 456kts
11-Feb-19 11:45 35.797111 -121.092820 310 27872ft 457kts
11-Feb-19 11:46 35.885812 -121.182036 310 27872ft 459kts
11-Feb-19 11:47 35.974455 -121.270982 310 27864ft 459kts
11-Feb-19 11:48 36.065223 -121.361541 311 27837ft 460kts
11-Feb-19 11:49 36.146735 -121.434587 319 26217ft 461kts
11-Feb-19 11:50 36.240558 -121.504807 318 24257ft 393kts
11-Feb-19 11:51 36.325659 -121.568827 318 22276ft 373kts
11-Feb-19 11:52 36.410106 -121.633504 319 20286ft 366kts
11-Feb-19 11:53 36.490261 -121.695219 318 19831ft 363kts
11-Feb-19 11:54 36.569996 -121.757744 318 18100ft 354kts
11-Feb-19 11:55 36.643360 -121.815988 318 16323ft 347kts
11-Feb-19 11:56 36.711545 -121.869991 319 14788ft 338kts
11-Feb-19 11:57 36.785314 -121.906632 340 14539ft 356kts
11-Feb-19 11:58 36.857104 -121.926558 341 14535ft 355kts
11-Feb-19 11:59 36.924765 -121.945276 340 14536ft 355kts
11-Feb-19 12:00 36.989889 -121.966326 343 14538ft 357kts
11-Feb-19 12:01 37.052745 -121.981470 343 13675ft 346kts
11-Feb-19 12:02 37.104806 -121.996903 339 12228ft 293kts
11-Feb-19 12:03 37.148720 -122.012959 339 10480ft 287kts
11-Feb-19 12:04 37.188227 -122.031594 335 8896ft 290kts
11-Feb-19 12:05 37.231073 -122.052861 337 7225ft 302kts
11-Feb-19 12:06 37.273107 -122.073456 338 5635ft 269kts
11-Feb-19 12:07 37.319304 -122.096185 338 5509ft 273kts
11-Feb-19 12:08 37.358747 -122.113804 342 5509ft 273kts
11-Feb-19 12:09 37.402666 -122.129163 344 5071ft 273kts
11-Feb-19 12:10 37.447925 -122.144676 344 4309ft 263kts
11-Feb-19 12:11 37.490838 -122.159756 343 3537ft 224kts
11-Feb-19 12:12 37.527338 -122.173301 343 2535ft 185kts
11-Feb-19 12:13 37.549607 -122.205078 295 2509ft 191kts
11-Feb-19 12:14 37.565369 -122.242615 296 2047ft 184kts
11-Feb-19 12:15 37.578621 -122.274042 295 1508ft 164kts
11-Feb-19 12:16 37.591707 -122.305203 295 981ft 169kts
11-Feb-19 12:17 37.604213 -122.334947 295 470ft 165kts
11-Feb-19 12:18 37.615863 -122.362342 295 23ft 137kts
11-Feb-19 12:19 37.622813 -122.379004 303 17ft 53kts
11-Feb-19 12:20 37.624766 -122.381263 11 17ft 8kts
11-Feb-19 12:21 37.627072 -122.384802 347 17ft 13kts
11-Feb-19 12:22 37.627537 -122.384759 30 17ft 0kts

Navigation Log

Ident Type
Flight plan parsing failed, navigation log unavailable